Time;durP1;ratioP1;P1;durP2;ratioP2;P2;SDS_P1;SDS_P2;PMS_P1;PMS_P2;Temp;Humidity;BMP_temperature;BMP_pressure;BME280_temperature;BME280_humidity;BME280_pressure;Samples;Min_cycle;Max_cycle;Signal;HPM_P1;HPM_P2
2021/07/26 00:00:59;;;;;;;6.50;5.30;;;19.40;99.90;;;;;;4938021;29;20224;-79
2021/07/26 00:03:25;;;;;;;6.85;5.10;;;19.30;99.90;;;;;;4937813;29;20568;-79
2021/07/26 00:05:58;;;;;;;5.95;4.85;;;19.30;99.90;;;;;;4939834;28;20202;-79
2021/07/26 00:08:25;;;;;;;7.10;5.13;;;19.30;99.90;;;;;;4938206;28;20185;-79
2021/07/26 00:11:05;;;;;;;7.20;5.32;;;19.10;99.90;;;;;;4939579;29;20288;-79
2021/07/26 00:13:30;;;;;;;6.43;4.90;;;19.20;99.90;;;;;;4946246;29;20269;-79
2021/07/26 00:15:56;;;;;;;5.68;4.75;;;19.10;99.90;;;;;;4954624;28;20607;-80
2021/07/26 00:18:22;;;;;;;6.45;4.60;;;19.10;99.90;;;;;;4939436;29;20205;-79
2021/07/26 00:20:48;;;;;;;6.18;4.80;;;19.10;99.90;;;;;;4939839;29;20182;-79
2021/07/26 00:23:14;;;;;;;7.72;5.15;;;19.10;99.90;;;;;;4937146;29;20205;-79
2021/07/26 00:25:39;;;;;;;5.95;4.80;;;19.00;99.90;;;;;;4937883;29;20236;-79
2021/07/26 00:28:07;;;;;;;5.72;4.53;;;19.00;99.90;;;;;;4937271;29;20273;-79
2021/07/26 00:30:33;;;;;;;10.13;5.28;;;19.00;99.90;;;;;;4937246;29;20493;-79
2021/07/26 00:32:59;;;;;;;7.90;5.70;;;19.10;99.90;;;;;;4939290;29;20206;-79
2021/07/26 00:35:24;;;;;;;5.93;5.18;;;19.10;99.90;;;;;;4936946;29;20216;-79
2021/07/26 00:37:50;;;;;;;5.85;4.72;;;19.30;99.90;;;;;;4938809;29;20188;-78
2021/07/26 00:40:16;;;;;;;5.00;4.50;;;19.60;99.90;;;;;;4936443;29;20819;-79
2021/07/26 00:42:42;;;;;;;5.95;3.78;;;19.70;99.90;;;;;;4937366;29;20193;-78
2021/07/26 00:45:08;;;;;;;4.70;4.03;;;19.70;99.90;;;;;;4939808;28;20213;-79
2021/07/26 00:47:34;;;;;;;5.43;3.70;;;19.80;99.90;;;;;;4937809;29;20193;-79
2021/07/26 00:50:00;;;;;;;4.90;3.25;;;19.80;99.90;;;;;;4937841;29;20177;-80
2021/07/26 00:52:25;;;;;;;4.60;3.58;;;19.90;99.90;;;;;;4937386;29;20217;-80
2021/07/26 00:54:52;;;;;;;4.60;3.00;;;20.00;99.90;;;;;;4936628;29;20214;-79
2021/07/26 00:57:20;;;;;;;4.55;3.28;;;20.00;99.90;;;;;;4936687;28;20181;-79
2021/07/26 00:59:46;;;;;;;5.63;3.22;;;20.10;99.90;;;;;;4938225;29;20188;-78
2021/07/26 01:02:11;;;;;;;3.63;3.20;;;20.10;99.90;;;;;;4935638;29;20217;-79
2021/07/26 01:04:37;;;;;;;3.00;2.67;;;20.10;99.90;;;;;;4934746;29;20218;-79
2021/07/26 01:07:03;;;;;;;4.80;3.22;;;20.20;99.90;;;;;;4938686;29;20579;-79
2021/07/26 01:09:29;;;;;;;5.43;3.90;;;20.20;99.90;;;;;;4938907;29;21057;-79
2021/07/26 01:11:55;;;;;;;4.72;3.53;;;20.20;99.90;;;;;;4937888;29;20216;-80
2021/07/26 01:14:20;;;;;;;5.75;3.72;;;20.20;99.90;;;;;;4952156;28;20214;-79
2021/07/26 01:16:47;;;;;;;5.97;3.45;;;20.10;99.90;;;;;;4938760;29;20240;-79
2021/07/26 01:19:14;;;;;;;4.43;3.17;;;20.10;99.90;;;;;;4936914;29;20273;-79
2021/07/26 01:21:40;;;;;;;4.38;3.45;;;20.10;99.90;;;;;;4937120;29;20190;-79
2021/07/26 01:24:06;;;;;;;3.58;3.15;;;20.00;99.90;;;;;;4938467;29;20252;-80
2021/07/26 01:26:32;;;;;;;5.97;4.22;;;20.10;99.90;;;;;;4936849;29;20210;-79
2021/07/26 01:29:06;;;;;;;5.07;4.03;;;20.10;99.90;;;;;;4939173;28;20189;-79
2021/07/26 01:31:33;;;;;;;5.30;3.35;;;20.00;99.90;;;;;;4937584;29;20430;-79
2021/07/26 01:33:59;;;;;;;4.18;3.60;;;20.00;99.90;;;;;;4938893;29;20236;-79
2021/07/26 01:36:25;;;;;;;6.20;3.63;;;19.90;99.90;;;;;;4938169;28;20209;-79
2021/07/26 01:38:52;;;;;;;5.00;3.85;;;20.00;99.90;;;;;;4936422;29;20654;-79
2021/07/26 01:41:21;;;;;;;4.93;3.72;;;20.00;99.90;;;;;;4935973;29;20190;-80
2021/07/26 01:44:30;;;;;;;6.80;3.92;;;19.90;99.90;;;;;;4936872;29;20196;-79
2021/07/26 01:46:54;;;;;;;8.38;4.03;;;20.00;99.90;;;;;;4937204;28;20244;-79
2021/07/26 01:49:31;;;;;;;5.78;3.75;;;19.80;99.90;;;;;;4936707;28;20196;-79
2021/07/26 01:51:57;;;;;;;6.75;4.30;;;19.70;99.90;;;;;;4936672;29;20416;-80
2021/07/26 01:54:22;;;;;;;4.80;3.88;;;19.70;99.90;;;;;;4935415;29;20273;-79
2021/07/26 01:56:49;;;;;;;4.63;3.85;;;19.70;99.90;;;;;;4937765;28;20212;-79
2021/07/26 01:59:14;;;;;;;6.07;4.43;;;19.80;99.90;;;;;;4936801;29;21136;-79
2021/07/26 02:01:40;;;;;;;5.85;3.75;;;19.80;99.90;;;;;;4936898;29;20268;-79
2021/07/26 02:04:05;;;;;;;4.75;4.15;;;19.60;99.90;;;;;;4936299;29;20394;-79
2021/07/26 02:06:31;;;;;;;6.35;4.80;;;19.50;99.90;;;;;;4936674;29;20262;-79
2021/07/26 02:08:56;;;;;;;4.10;3.35;;;19.40;99.90;;;;;;4938553;28;20190;-79
2021/07/26 02:11:22;;;;;;;5.45;4.40;;;19.40;99.90;;;;;;4939750;29;20210;-79
2021/07/26 02:13:52;;;;;;;5.18;3.72;;;19.30;99.90;;;;;;4940252;29;20182;-79
2021/07/26 02:16:18;;;;;;;4.68;3.90;;;19.20;99.90;;;;;;4940099;29;20228;-79
2021/07/26 02:18:43;;;;;;;5.18;3.95;;;19.20;99.90;;;;;;4940589;28;20183;-79
2021/07/26 02:21:09;;;;;;;4.75;3.92;;;19.20;99.90;;;;;;4941746;29;20204;-79
2021/07/26 02:23:35;;;;;;;5.22;4.15;;;19.10;99.90;;;;;;4939846;29;20186;-80
2021/07/26 02:26:00;;;;;;;5.03;3.95;;;19.00;99.90;;;;;;4939569;29;20224;-79
2021/07/26 02:28:26;;;;;;;6.45;3.67;;;18.90;99.90;;;;;;4937976;29;20671;-79
2021/07/26 02:30:51;;;;;;;4.10;3.30;;;18.90;99.90;;;;;;4939467;29;20217;-79
2021/07/26 02:33:17;;;;;;;6.57;4.63;;;18.90;99.90;;;;;;4940273;29;20186;-79
2021/07/26 02:35:42;;;;;;;6.47;4.03;;;18.80;99.90;;;;;;4940136;29;20774;-80
2021/07/26 02:38:08;;;;;;;4.72;4.07;;;18.80;99.90;;;;;;4939136;29;20188;-79
2021/07/26 02:40:34;;;;;;;5.25;4.15;;;18.70;99.90;;;;;;4938538;29;20600;-80
2021/07/26 02:42:59;;;;;;;4.45;3.83;;;18.70;99.90;;;;;;4939829;29;20269;-80
2021/07/26 02:45:26;;;;;;;5.82;4.47;;;18.60;99.90;;;;;;4942036;28;20206;-79
2021/07/26 02:47:52;;;;;;;6.30;4.10;;;18.60;99.90;;;;;;4940060;29;20182;-80
2021/07/26 02:50:19;;;;;;;5.47;4.22;;;18.60;99.90;;;;;;4938580;29;20189;-79
2021/07/26 02:52:44;;;;;;;5.47;3.78;;;18.60;99.90;;;;;;4939981;29;20233;-79
2021/07/26 02:55:10;;;;;;;6.13;4.10;;;18.50;99.90;;;;;;4939675;29;20285;-80
2021/07/26 02:57:36;;;;;;;4.85;4.00;;;18.50;99.90;;;;;;4938194;29;20266;-79
2021/07/26 03:00:03;;;;;;;5.90;3.70;;;18.50;99.90;;;;;;4938565;29;20304;-80
2021/07/26 03:02:29;;;;;;;7.68;4.43;;;18.40;99.90;;;;;;4939943;29;20312;-79
2021/07/26 03:04:57;;;;;;;6.20;4.63;;;18.50;99.90;;;;;;4938031;28;20300;-79
2021/07/26 03:07:23;;;;;;;5.38;3.88;;;18.60;99.90;;;;;;4939802;29;20197;-76
2021/07/26 03:09:48;;;;;;;5.82;4.85;;;18.60;99.90;;;;;;4936284;29;20193;-76
2021/07/26 03:12:14;;;;;;;6.05;4.18;;;18.50;99.90;;;;;;4935771;28;20244;-77
2021/07/26 03:14:39;;;;;;;5.88;4.40;;;18.40;99.90;;;;;;4935374;29;20186;-77
2021/07/26 03:17:05;;;;;;;6.20;4.53;;;18.30;99.90;;;;;;4939581;29;20201;-77
2021/07/26 03:19:31;;;;;;;5.00;4.20;;;18.20;99.90;;;;;;4939740;28;20177;-77
2021/07/26 03:22:43;;;;;;;5.00;4.10;;;18.10;99.90;;;;;;4935933;28;20185;-77
2021/07/26 03:25:08;;;;;;;6.85;4.30;;;18.10;99.90;;;;;;4935020;29;20611;-77
2021/07/26 03:27:35;;;;;;;5.50;4.63;;;18.00;99.90;;;;;;4936940;28;20244;-77
2021/07/26 03:30:00;;;;;;;5.38;4.57;;;17.90;99.90;;;;;;4937920;28;20268;-78
2021/07/26 03:32:26;;;;;;;5.47;4.53;;;17.70;99.90;;;;;;4936640;28;20806;-79
2021/07/26 03:34:51;;;;;;;5.50;4.25;;;17.70;99.90;;;;;;4940657;28;20247;-79
2021/07/26 03:37:17;;;;;;;5.55;4.53;;;17.70;99.90;;;;;;4938588;28;20192;-79
2021/07/26 03:39:42;;;;;;;8.52;5.00;;;17.70;99.90;;;;;;4938954;29;20186;-79
2021/07/26 03:42:08;;;;;;;5.38;4.40;;;17.70;99.90;;;;;;4940348;28;20186;-79
2021/07/26 03:44:34;;;;;;;6.45;4.75;;;17.60;99.90;;;;;;4940160;28;20190;-80
2021/07/26 03:46:59;;;;;;;5.50;4.45;;;17.60;99.90;;;;;;4940116;29;20186;-79
2021/07/26 03:49:25;;;;;;;6.57;4.63;;;17.70;99.90;;;;;;4940078;28;20189;-79
2021/07/26 03:51:51;;;;;;;6.13;4.53;;;17.50;99.90;;;;;;4939153;29;20217;-79
2021/07/26 03:54:16;;;;;;;6.80;4.70;;;17.50;99.90;;;;;;4938002;28;20193;-79
2021/07/26 03:56:42;;;;;;;4.72;3.83;;;17.50;99.90;;;;;;4939526;29;20304;-79
2021/07/26 03:59:07;;;;;;;8.90;4.55;;;17.50;99.90;;;;;;4946473;28;20185;-79
2021/07/26 04:01:33;;;;;;;5.43;4.40;;;17.30;99.90;;;;;;4938996;29;20202;-79
2021/07/26 04:03:58;;;;;;;6.00;4.43;;;17.40;99.90;;;;;;4936596;29;20186;-79
2021/07/26 04:06:24;;;;;;;5.53;3.65;;;17.40;99.90;;;;;;4938215;29;20703;-79
2021/07/26 04:08:52;;;;;;;4.90;3.75;;;17.50;99.90;;;;;;4939827;29;20241;-79
2021/07/26 04:13:50;;;;;;;5.30;4.00;;;17.40;99.90;;;;;;4939013;29;20204;-79
2021/07/26 04:16:16;;;;;;;7.13;4.18;;;17.50;99.90;;;;;;4939279;28;20213;-79
2021/07/26 04:18:42;;;;;;;4.05;3.30;;;17.60;99.90;;;;;;4938530;29;20190;-79
2021/07/26 04:21:08;;;;;;;4.43;3.72;;;17.70;99.90;;;;;;4939010;28;20189;-79
2021/07/26 04:23:35;;;;;;;4.05;3.45;;;18.00;99.90;;;;;;4937750;28;20248;-79
2021/07/26 04:26:00;;;;;;;4.20;3.08;;;18.10;99.90;;;;;;4939295;28;20206;-79
2021/07/26 04:28:26;;;;;;;4.13;3.40;;;18.20;99.90;;;;;;4938848;29;20201;-79
2021/07/26 04:30:51;;;;;;;4.90;3.30;;;18.40;99.90;;;;;;4937659;28;20186;-79
2021/07/26 04:33:17;;;;;;;3.60;3.03;;;18.70;99.90;;;;;;4939024;28;20560;-80
2021/07/26 04:35:42;;;;;;;4.85;3.90;;;19.00;99.90;;;;;;4937204;29;20237;-79
2021/07/26 04:38:08;;;;;;;4.45;3.30;;;19.20;99.90;;;;;;4939829;28;20186;-79
2021/07/26 04:40:34;;;;;;;4.82;3.25;;;19.40;99.90;;;;;;4938890;28;20930;-79
2021/07/26 04:42:59;;;;;;;4.35;3.28;;;19.80;99.90;;;;;;4940278;28;20565;-79
2021/07/26 04:45:25;;;;;;;5.63;3.40;;;20.10;99.90;;;;;;4937792;28;20213;-80
2021/07/26 04:47:51;;;;;;;3.90;3.22;;;20.20;99.90;;;;;;4937068;29;20201;-80
2021/07/26 04:50:17;;;;;;;3.90;3.45;;;20.30;99.90;;;;;;4939787;28;20201;-79
2021/07/26 04:52:43;;;;;;;6.32;3.25;;;20.30;99.90;;;;;;4936302;29;20565;-79
2021/07/26 04:55:09;;;;;;;4.35;3.33;;;20.30;99.90;;;;;;4937530;29;20209;-79
2021/07/26 04:57:35;;;;;;;5.25;3.50;;;20.30;99.90;;;;;;4937418;29;20196;-79
2021/07/26 05:00:00;;;;;;;4.10;3.45;;;20.40;99.90;;;;;;4938261;29;20220;-79
2021/07/26 05:02:26;;;;;;;5.70;3.95;;;20.40;99.90;;;;;;4937887;28;20189;-79
2021/07/26 05:04:52;;;;;;;4.65;3.58;;;20.40;99.90;;;;;;4938734;29;20217;-79
2021/07/26 05:07:17;;;;;;;4.45;3.50;;;20.40;99.90;;;;;;4938695;29;20666;-79
2021/07/26 05:09:43;;;;;;;5.40;3.90;;;20.50;99.90;;;;;;4938953;29;20910;-80
2021/07/26 05:12:12;;;;;;;4.68;3.78;;;20.70;99.90;;;;;;4939975;28;20576;-79
2021/07/26 05:14:40;;;;;;;4.25;3.10;;;20.90;99.90;;;;;;4936071;28;20589;-79
2021/07/26 05:17:06;;;;;;;4.63;3.30;;;21.60;99.90;;;;;;4937110;29;20203;-79
2021/07/26 05:19:31;;;;;;;5.95;3.13;;;22.20;99.90;;;;;;4936933;29;20193;-79
2021/07/26 05:21:57;;;;;;;5.57;3.60;;;23.00;99.90;;;;;;4936477;29;20177;-79
2021/07/26 05:24:24;;;;;;;3.85;3.00;;;23.70;99.90;;;;;;4936815;29;20190;-80
2021/07/26 05:26:57;;;;;;;4.30;3.15;;;23.80;99.90;;;;;;4939166;29;20224;-79
2021/07/26 05:29:23;;;;;;;3.70;3.33;;;23.60;99.90;;;;;;4938126;29;20201;-79
2021/07/26 05:31:48;;;;;;;4.55;3.20;;;23.40;99.90;;;;;;4938891;29;20238;-80
2021/07/26 05:34:14;;;;;;;3.70;2.92;;;23.30;99.90;;;;;;4938290;28;20606;-79
2021/07/26 05:36:40;;;;;;;4.97;3.63;;;23.30;99.90;;;;;;4936518;28;20644;-80
2021/07/26 05:39:06;;;;;;;3.80;3.40;;;23.40;99.90;;;;;;4938574;29;20174;-79
2021/07/26 05:41:32;;;;;;;3.47;3.17;;;23.70;99.90;;;;;;4937426;29;20300;-80
2021/07/26 05:43:58;;;;;;;4.28;3.30;;;24.00;99.90;;;;;;4938552;28;20268;-80
2021/07/26 05:46:23;;;;;;;4.18;2.72;;;24.10;99.90;;;;;;4941972;28;21194;-80
2021/07/26 05:48:49;;;;;;;3.03;2.70;;;24.20;99.90;;;;;;4941161;29;20619;-80
2021/07/26 05:51:14;;;;;;;4.07;2.95;;;24.80;99.90;;;;;;4941839;29;20206;-79
2021/07/26 05:53:40;;;;;;;2.78;2.40;;;25.60;99.90;;;;;;4941535;29;20228;-80
2021/07/26 05:56:06;;;;;;;3.47;2.63;;;26.40;99.90;;;;;;4941604;29;20205;-80
2021/07/26 05:58:40;;;;;;;2.58;2.35;;;26.80;99.90;;;;;;4941935;29;20224;-80
2021/07/26 06:01:21;;;;;;;2.95;2.67;;;26.70;99.90;;;;;;4941671;29;20188;-80
2021/07/26 06:03:49;;;;;;;3.00;2.60;;;27.00;99.90;;;;;;4942495;29;20548;-81
2021/07/26 06:06:15;;;;;;;2.75;2.53;;;27.40;99.90;;;;;;4941191;29;20210;-80
2021/07/26 06:08:40;;;;;;;2.75;2.50;;;27.60;99.90;;;;;;4940261;29;20232;-81
2021/07/26 06:11:06;;;;;;;3.15;2.83;;;27.80;99.90;;;;;;4940912;29;20273;-80
2021/07/26 06:13:32;;;;;;;2.78;2.55;;;27.70;99.90;;;;;;4941351;29;20218;-80
2021/07/26 06:15:58;;;;;;;2.33;2.13;;;27.70;99.90;;;;;;4941240;28;20634;-80
2021/07/26 06:18:24;;;;;;;2.95;2.60;;;27.60;99.90;;;;;;4939459;29;20555;-80
2021/07/26 06:20:49;;;;;;;2.70;2.35;;;27.00;99.90;;;;;;4941913;29;20190;-80
2021/07/26 06:23:15;;;;;;;2.50;2.30;;;26.70;99.90;;;;;;4939674;29;20190;-80
2021/07/26 06:25:41;;;;;;;3.10;2.63;;;26.50;99.90;;;;;;4938680;28;20311;-80
2021/07/26 06:28:06;;;;;;;3.53;2.35;;;26.40;99.90;;;;;;4942578;28;20174;-80
2021/07/26 06:30:32;;;;;;;3.97;2.58;;;26.80;99.90;;;;;;4941418;28;20181;-78
2021/07/26 06:32:58;;;;;;;3.28;2.60;;;27.10;99.90;;;;;;4938704;29;20215;-78
2021/07/26 06:35:23;;;;;;;2.83;2.53;;;27.20;99.90;;;;;;4939548;28;20486;-78
2021/07/26 06:37:49;;;;;;;2.88;2.35;;;27.80;99.90;;;;;;4939281;29;20238;-78
2021/07/26 06:40:15;;;;;;;3.50;2.65;;;28.10;99.90;;;;;;4943705;28;20586;-78
2021/07/26 06:42:43;;;;;;;2.97;2.25;;;28.30;99.90;;;;;;4940105;28;20194;-78
2021/07/26 06:45:09;;;;;;;3.88;2.65;;;28.40;99.90;;;;;;4934586;29;20214;-78
2021/07/26 06:47:36;;;;;;;2.70;2.45;;;28.20;99.90;;;;;;4936073;29;20565;-78
2021/07/26 06:50:02;;;;;;;3.72;2.03;;;27.70;99.90;;;;;;4935922;29;20552;-78
2021/07/26 06:52:28;;;;;;;3.72;2.42;;;27.20;99.90;;;;;;4940066;29;20355;-78
2021/07/26 06:54:53;;;;;;;2.60;2.40;;;26.80;99.90;;;;;;4935562;28;20320;-78
2021/07/26 06:57:19;;;;;;;3.53;2.17;;;26.30;99.90;;;;;;4936223;28;20556;-78
2021/07/26 06:59:44;;;;;;;3.42;2.03;;;26.10;99.90;;;;;;4939575;29;20182;-78
2021/07/26 07:02:10;;;;;;;2.30;1.73;;;25.80;99.90;;;;;;4936584;29;20561;-78
2021/07/26 07:04:36;;;;;;;2.50;2.30;;;25.70;99.90;;;;;;4936392;28;20598;-78
2021/07/26 07:07:05;;;;;;;4.18;2.35;;;25.60;99.90;;;;;;4935647;29;20186;-78
2021/07/26 07:09:31;;;;;;;2.97;2.60;;;25.40;99.90;;;;;;4933839;29;20190;-77
2021/07/26 07:11:57;;;;;;;4.63;2.08;;;25.40;99.90;;;;;;4941308;28;20221;-79
2021/07/26 07:14:22;;;;;;;2.67;2.15;;;25.30;99.90;;;;;;4935089;29;20303;-78
2021/07/26 07:16:48;;;;;;;2.78;2.08;;;25.40;99.90;;;;;;4935969;29;20419;-78
2021/07/26 07:19:14;;;;;;;2.17;1.88;;;25.40;99.90;;;;;;4936610;28;20194;-77
2021/07/26 07:21:39;;;;;;;2.10;1.70;;;25.30;99.90;;;;;;4936349;29;20193;-78
2021/07/26 07:24:05;;;;;;;2.85;2.08;;;25.30;99.90;;;;;;4935925;28;20962;-77
2021/07/26 07:26:31;;;;;;;2.15;1.95;;;25.30;99.90;;;;;;4931247;28;20579;-78
2021/07/26 07:28:57;;;;;;;3.10;2.08;;;25.50;99.90;;;;;;4936504;29;20586;-78
2021/07/26 07:31:26;;;;;;;2.05;1.85;;;25.50;99.90;;;;;;4932186;29;20210;-79
2021/07/26 07:33:52;;;;;;;2.42;1.63;;;25.60;99.90;;;;;;4941658;29;20181;-78
2021/07/26 07:36:18;;;;;;;3.30;2.20;;;25.80;99.90;;;;;;4938249;28;20206;-77
2021/07/26 07:38:44;;;;;;;4.05;2.55;;;25.80;99.90;;;;;;4932311;28;20261;-77
2021/07/26 07:41:09;;;;;;;2.10;1.80;;;25.80;99.90;;;;;;4933678;29;20277;-76
2021/07/26 07:43:35;;;;;;;4.28;2.20;;;25.80;99.90;;;;;;4932146;29;20186;-77
2021/07/26 07:46:01;;;;;;;3.08;1.90;;;25.80;99.90;;;;;;4937841;28;20802;-76
2021/07/26 07:48:27;;;;;;;1.88;1.67;;;25.90;99.90;;;;;;4939334;29;20201;-77
2021/07/26 07:50:54;;;;;;;3.03;2.15;;;26.00;99.90;;;;;;4932883;28;20232;-76
2021/07/26 07:53:21;;;;;;;2.05;1.85;;;26.20;99.90;;;;;;4937665;28;20213;-76
2021/07/26 07:55:48;;;;;;;3.75;2.28;;;26.10;99.90;;;;;;4936936;29;20246;-77
2021/07/26 07:58:13;;;;;;;3.05;2.10;;;26.20;99.90;;;;;;4932568;28;20629;-77
2021/07/26 08:00:39;;;;;;;2.25;1.80;;;26.30;99.90;;;;;;4936064;29;20186;-76
2021/07/26 08:03:05;;;;;;;4.63;2.22;;;26.30;99.90;;;;;;4936060;28;20189;-77
2021/07/26 08:05:31;;;;;;;2.60;2.05;;;26.30;99.90;;;;;;4933973;29;20209;-77
2021/07/26 08:07:57;;;;;;;2.30;2.00;;;26.50;99.90;;;;;;4932140;29;20190;-77
2021/07/26 08:10:23;;;;;;;3.10;2.38;;;26.50;99.90;;;;;;4933235;29;20206;-77
2021/07/26 08:12:48;;;;;;;5.68;2.40;;;26.60;99.90;;;;;;4935761;29;20205;-76
2021/07/26 08:15:14;;;;;;;2.88;2.28;;;26.70;99.90;;;;;;4935392;29;20561;-77
2021/07/26 08:17:42;;;;;;;3.60;2.58;;;26.70;99.90;;;;;;4939303;29;20189;-77
2021/07/26 08:20:16;;;;;;;9.00;3.67;;;26.70;99.90;;;;;;4932387;29;20277;-77
2021/07/26 08:22:43;;;;;;;6.40;3.80;;;26.80;99.90;;;;;;4934923;29;20383;-77
2021/07/26 08:25:13;;;;;;;29.77;10.65;;;26.80;99.90;;;;;;4936405;28;20813;-77
2021/07/26 08:27:56;;;;;;;8.82;3.90;;;26.80;99.90;;;;;;4936224;28;20269;-77
2021/07/26 08:30:25;;;;;;;6.07;2.80;;;27.00;99.90;;;;;;4935529;29;20182;-77
2021/07/26 08:32:51;;;;;;;2.83;2.30;;;27.00;99.90;;;;;;4932216;29;20225;-77
2021/07/26 08:35:18;;;;;;;4.40;2.60;;;26.90;99.90;;;;;;4934146;28;20216;-77
2021/07/26 08:37:44;;;;;;;2.92;2.42;;;26.80;99.90;;;;;;4933751;28;20191;-77
2021/07/26 08:40:10;;;;;;;5.28;2.65;;;26.90;99.90;;;;;;4932689;29;20190;-77
2021/07/26 08:42:36;;;;;;;3.95;2.75;;;27.00;99.90;;;;;;4934571;28;20189;-77
2021/07/26 08:45:03;;;;;;;3.65;2.35;;;26.90;99.90;;;;;;4932974;29;20209;-77
2021/07/26 08:47:31;;;;;;;4.07;2.40;;;27.00;99.90;;;;;;4930351;28;20193;-77
2021/07/26 08:49:58;;;;;;;2.97;2.33;;;27.20;99.90;;;;;;4929756;29;20276;-77
2021/07/26 08:52:27;;;;;;;1.83;1.65;;;27.20;99.90;;;;;;4936708;28;20265;-77
2021/07/26 08:54:56;;;;;;;2.72;2.13;;;27.20;99.90;;;;;;4934881;29;20724;-77
2021/07/26 08:57:22;;;;;;;3.13;2.17;;;27.30;99.90;;;;;;4935829;28;20222;-77
2021/07/26 08:59:48;;;;;;;2.38;2.13;;;27.40;99.90;;;;;;4934520;29;20183;-77
2021/07/26 09:02:13;;;;;;;3.25;2.08;;;27.60;99.90;;;;;;4941594;28;20559;-77
2021/07/26 09:04:39;;;;;;;2.00;1.77;;;27.60;99.90;;;;;;4930922;28;20192;-77
2021/07/26 09:07:06;;;;;;;3.13;2.20;;;27.70;99.90;;;;;;4933258;29;20197;-77
2021/07/26 09:09:46;;;;;;;3.58;1.92;;;27.80;99.90;;;;;;4934456;29;20652;-77
2021/07/26 09:12:33;;;;;;;2.80;2.03;;;28.00;99.90;;;;;;4936525;28;20208;-77
2021/07/26 09:15:00;;;;;;;2.05;1.85;;;28.00;99.90;;;;;;4935452;28;20208;-77
2021/07/26 09:17:45;;;;;;;2.40;1.80;;;27.90;99.90;;;;;;4931482;29;20194;-77
2021/07/26 09:20:12;;;;;;;3.05;2.05;;;27.70;99.90;;;;;;4932688;28;20181;-77
2021/07/26 09:22:41;;;;;;;2.28;1.98;;;27.70;99.90;;;;;;4933451;29;20245;-77
2021/07/26 09:25:13;;;;;;;2.75;1.98;;;27.90;99.90;;;;;;4932435;28;20602;-77
2021/07/26 09:27:54;;;;;;;1.77;1.63;;;28.00;99.90;;;;;;4932880;29;20321;-77
2021/07/26 09:30:20;;;;;;;2.03;1.70;;;28.20;99.90;;;;;;4936468;29;20186;-81
2021/07/26 09:32:46;;;;;;;2.08;1.73;;;28.40;99.90;;;;;;4931149;29;20798;-81
2021/07/26 09:35:11;;;;;;;2.03;1.83;;;28.70;99.90;;;;;;4927329;29;20198;-80
2021/07/26 09:37:37;;;;;;;2.10;1.52;;;28.70;99.90;;;;;;4934282;29;20189;-80
2021/07/26 09:40:23;;;;;;;2.17;1.77;;;28.80;99.90;;;;;;4935371;28;20321;-80
2021/07/26 09:42:49;;;;;;;4.72;2.22;;;28.90;99.90;;;;;;4940887;28;20699;-80
2021/07/26 09:45:23;;;;;;;3.05;1.83;;;28.80;99.90;;;;;;4936742;28;20252;-80
2021/07/26 09:48:09;;;;;;;3.15;2.28;;;28.90;99.90;;;;;;4933739;29;20243;-80
2021/07/26 09:50:35;;;;;;;3.22;2.30;;;28.90;99.90;;;;;;4936088;29;20621;-80
2021/07/26 09:53:13;;;;;;;2.08;1.85;;;28.80;99.90;;;;;;4934287;29;20687;-80
2021/07/26 09:55:42;;;;;;;1.67;1.55;;;29.00;99.90;;;;;;4937055;28;20591;-80
2021/07/26 09:58:09;;;;;;;2.00;1.67;;;28.90;99.90;;;;;;4933925;29;20186;-80
2021/07/26 10:00:36;;;;;;;1.45;1.35;;;28.90;99.90;;;;;;4937109;29;20597;-80
2021/07/26 10:03:03;;;;;;;2.90;2.45;;;28.80;99.90;;;;;;4931626;28;20214;-80
2021/07/26 10:05:31;;;;;;;2.10;1.70;;;29.20;99.90;;;;;;4935992;29;20214;-80
2021/07/26 10:08:00;;;;;;;2.05;1.88;;;29.20;99.90;;;;;;4932608;29;20178;-80
2021/07/26 10:10:27;;;;;;;3.05;2.08;;;29.40;99.90;;;;;;4937351;28;20252;-80
2021/07/26 10:12:53;;;;;;;2.88;2.10;;;29.40;99.90;;;;;;4931662;29;20214;-80
2021/07/26 10:15:19;;;;;;;2.05;1.60;;;29.50;99.90;;;;;;4933999;29;20594;-80
2021/07/26 10:17:47;;;;;;;2.58;1.90;;;29.40;99.90;;;;;;4941590;29;20188;-80
2021/07/26 10:20:17;;;;;;;2.20;2.00;;;29.50;99.90;;;;;;4938567;29;20545;-80
2021/07/26 10:23:08;;;;;;;2.53;1.98;;;29.20;99.90;;;;;;4933241;29;20642;-80
2021/07/26 10:25:36;;;;;;;2.15;1.85;;;29.10;99.90;;;;;;4937187;29;20308;-80
2021/07/26 10:28:11;;;;;;;2.40;2.10;;;29.30;99.90;;;;;;4937328;29;20209;-80
2021/07/26 10:30:38;;;;;;;2.28;1.80;;;29.70;99.90;;;;;;4934782;28;20253;-80
2021/07/26 10:33:06;;;;;;;2.20;2.00;;;29.50;99.90;;;;;;4938740;28;20789;-80
2021/07/26 10:35:39;;;;;;;1.90;1.55;;;29.10;99.90;;;;;;4936738;28;20210;-80
2021/07/26 10:38:06;;;;;;;2.90;1.92;;;29.20;99.90;;;;;;4938395;29;20406;-79
2021/07/26 10:40:38;;;;;;;1.98;1.70;;;29.20;99.90;;;;;;4939127;28;20681;-80
2021/07/26 10:43:04;;;;;;;2.55;1.92;;;29.40;99.90;;;;;;4940038;28;20218;-80
2021/07/26 10:45:36;;;;;;;2.03;1.70;;;29.40;99.90;;;;;;4931831;29;20703;-80
2021/07/26 10:48:24;;;;;;;2.00;1.77;;;29.50;99.90;;;;;;4937379;29;20670;-79
2021/07/26 10:50:51;;;;;;;1.60;1.50;;;29.60;99.90;;;;;;4940035;29;20236;-79
2021/07/26 10:53:32;;;;;;;1.67;1.58;;;29.80;99.90;;;;;;4939472;29;20228;-79
2021/07/26 10:56:03;;;;;;;1.70;1.50;;;29.90;99.90;;;;;;4932551;28;20626;-80
2021/07/26 10:58:37;;;;;;;2.08;1.65;;;30.00;99.90;;;;;;4937296;29;20635;-80
2021/07/26 11:01:25;;;;;;;3.17;1.75;;;30.00;99.90;;;;;;4936646;29;20552;-78
2021/07/26 11:03:55;;;;;;;2.10;1.77;;;30.00;99.90;;;;;;4937103;29;20871;-79
2021/07/26 11:06:37;;;;;;;2.22;1.98;;;30.20;99.90;;;;;;4934063;28;20216;-79
2021/07/26 11:09:33;;;;;;;1.70;1.60;;;30.30;99.90;;;;;;4934677;29;20215;-80
2021/07/26 11:12:00;;;;;;;2.15;1.80;;;30.30;99.90;;;;;;4944539;28;20209;-79
2021/07/26 11:14:26;;;;;;;2.03;1.80;;;30.40;99.90;;;;;;4940055;28;20679;-79
2021/07/26 11:19:54;;;;;;;1.83;1.60;;;30.50;99.90;;;;;;4927203;28;20901;-80
2021/07/26 11:22:26;;;;;;;2.47;2.10;;;30.50;99.90;;;;;;4934668;29;20194;-80
2021/07/26 11:25:03;;;;;;;1.85;1.60;;;30.90;99.90;;;;;;4947199;28;20213;-80
2021/07/26 11:27:31;;;;;;;1.88;1.70;;;31.00;99.90;;;;;;4933127;29;20269;-80
2021/07/26 11:29:57;;;;;;;1.70;1.60;;;30.90;99.60;;;;;;4930260;29;20449;-79
2021/07/26 11:32:27;;;;;;;2.13;1.85;;;30.60;98.30;;;;;;4941583;29;20213;-80
2021/07/26 11:34:57;;;;;;;1.77;1.60;;;30.40;99.90;;;;;;4930772;28;20676;-79
2021/07/26 11:37:31;;;;;;;1.67;1.58;;;30.70;99.20;;;;;;4936538;29;20181;-79
2021/07/26 11:40:04;;;;;;;2.03;1.50;;;30.90;99.00;;;;;;4937275;29;20505;-79
2021/07/26 11:42:35;;;;;;;3.25;1.70;;;30.80;98.00;;;;;;4935967;28;20182;-80
2021/07/26 11:45:02;;;;;;;3.70;3.25;;;30.80;98.00;;;;;;4940891;29;20212;-80
2021/07/26 11:47:38;;;;;;;1.63;1.52;;;30.80;97.90;;;;;;4942109;28;20216;-80
2021/07/26 11:50:06;;;;;;;1.75;1.65;;;30.90;97.30;;;;;;4939416;28;20189;-80
2021/07/26 11:52:32;;;;;;;1.60;1.50;;;30.50;97.80;;;;;;4934681;29;20206;-79
2021/07/26 11:54:58;;;;;;;2.13;1.77;;;30.30;98.70;;;;;;4934036;29;20201;-79
2021/07/26 11:57:24;;;;;;;1.60;1.50;;;30.00;98.00;;;;;;4940324;29;20750;-79
2021/07/26 11:59:51;;;;;;;1.88;1.50;;;29.80;97.80;;;;;;4930567;29;20178;-79
2021/07/26 12:02:19;;;;;;;1.58;1.33;;;29.80;97.20;;;;;;4933279;29;20189;-79
2021/07/26 12:04:45;;;;;;;1.80;1.50;;;30.20;97.20;;;;;;4934766;28;20270;-86
2021/07/26 12:07:11;;;;;;;1.73;1.63;;;30.00;98.10;;;;;;4934656;29;20240;-77
2021/07/26 12:09:50;;;;;;;1.98;1.55;;;29.90;96.70;;;;;;4937007;29;20266;-82
2021/07/26 12:12:17;;;;;;;2.40;1.58;;;30.00;96.60;;;;;;4936055;29;20224;-82
2021/07/26 12:14:44;;;;;;;1.40;1.30;;;30.10;96.70;;;;;;4944797;28;20237;-82
2021/07/26 12:17:12;;;;;;;1.58;1.48;;;29.90;96.80;;;;;;4931446;29;20657;-82
2021/07/26 12:19:42;;;;;;;1.45;1.35;;;29.90;97.10;;;;;;4929122;29;20186;-82
2021/07/26 12:22:22;;;;;;;1.88;1.30;;;29.90;97.80;;;;;;4934047;29;20182;-81
2021/07/26 12:24:58;;;;;;;2.30;1.38;;;30.20;97.60;;;;;;4934675;28;20630;-82
2021/07/26 12:27:42;;;;;;;1.80;1.50;;;30.40;96.50;;;;;;4932411;29;20257;-83
2021/07/26 12:30:12;;;;;;;1.10;1.00;;;30.50;94.20;;;;;;4935594;29;20891;-77
2021/07/26 12:32:52;;;;;;;1.92;1.30;;;30.40;94.60;;;;;;4934468;28;20460;-77
2021/07/26 12:35:18;;;;;;;1.40;1.30;;;30.20;94.20;;;;;;4937529;28;20215;-77
2021/07/26 12:38:11;;;;;;;1.52;1.20;;;30.30;95.20;;;;;;4934079;28;20182;-77
2021/07/26 12:40:39;;;;;;;1.20;1.10;;;30.40;96.20;;;;;;4932188;29;20181;-77
2021/07/26 12:43:07;;;;;;;1.33;1.23;;;30.50;94.10;;;;;;4930976;28;20187;-77
2021/07/26 12:45:33;;;;;;;1.23;1.13;;;30.50;93.80;;;;;;4940794;28;20219;-77
2021/07/26 12:48:13;;;;;;;1.30;1.20;;;30.80;94.40;;;;;;4933541;29;20267;-77
2021/07/26 12:50:40;;;;;;;1.60;1.40;;;31.00;94.30;;;;;;4931175;29;20208;-77
2021/07/26 12:53:06;;;;;;;1.90;1.40;;;31.10;93.30;;;;;;4933963;28;20198;-77
2021/07/26 12:55:31;;;;;;;1.95;1.40;;;31.00;92.00;;;;;;4937109;28;20698;-76